createdAt,value
2023-01-07T00:01:44.089Z,9.20
2023-01-07T00:04:13.982Z,9.10
2023-01-07T00:06:42.772Z,9.00
2023-01-07T00:09:14.529Z,8.90
2023-01-07T00:11:42.067Z,8.90
2023-01-07T00:14:12.591Z,8.90
2023-01-07T00:16:40.238Z,8.90
2023-01-07T00:19:11.939Z,8.80
2023-01-07T00:21:38.504Z,8.90
2023-01-07T00:24:06.423Z,8.90
2023-01-07T00:26:36.473Z,8.80
2023-01-07T00:29:05.343Z,8.70
2023-01-07T00:31:37.132Z,8.60
2023-01-07T00:34:04.523Z,8.60
2023-01-07T00:36:40.772Z,8.60
2023-01-07T00:39:11.060Z,8.60
2023-01-07T00:41:38.246Z,8.60
2023-01-07T00:44:06.810Z,8.60
2023-01-07T00:46:34.457Z,8.60
2023-01-07T00:49:01.901Z,8.50
2023-01-07T00:51:28.668Z,8.50
2023-01-07T00:53:55.383Z,8.50
2023-01-07T00:56:21.988Z,8.50
2023-01-07T00:58:48.628Z,8.40
2023-01-07T01:01:15.381Z,8.40
2023-01-07T01:03:42.208Z,8.40
2023-01-07T01:06:14.076Z,8.40
2023-01-07T01:08:43.338Z,8.50
2023-01-07T01:11:11.967Z,8.50
2023-01-07T01:13:39.476Z,8.40
2023-01-07T01:16:15.280Z,8.50
2023-01-07T01:18:43.187Z,8.50
2023-01-07T01:21:14.154Z,8.50
2023-01-07T01:23:42.561Z,8.60
2023-01-07T01:26:17.283Z,8.70
2023-01-07T01:28:44.623Z,8.80
2023-01-07T01:31:11.982Z,8.80
2023-01-07T01:33:38.627Z,8.90
2023-01-07T01:36:12.836Z,8.90
2023-01-07T01:38:40.113Z,8.90
2023-01-07T01:41:07.351Z,9.00
2023-01-07T01:43:41.162Z,9.10
2023-01-07T01:46:39.807Z,9.00
2023-01-07T01:49:30.268Z,9.00
2023-01-07T01:52:05.974Z,9.00
2023-01-07T01:54:33.794Z,9.00
2023-01-07T01:57:04.263Z,9.10
2023-01-07T01:59:36.602Z,9.10
2023-01-07T02:02:04.124Z,9.10
2023-01-07T02:04:31.586Z,9.00
2023-01-07T02:07:07.541Z,9.10
2023-01-07T02:09:34.200Z,9.00
2023-01-07T02:12:19.526Z,9.10
2023-01-07T02:15:15.004Z,9.00
2023-01-07T02:18:08.412Z,9.00
2023-01-07T02:20:48.760Z,9.10
2023-01-07T02:24:04.808Z,9.10
2023-01-07T02:27:21.267Z,9.00
2023-01-07T02:30:46.347Z,9.00
2023-01-07T02:33:40.321Z,9.00
2023-01-07T02:36:25.469Z,9.00
2023-01-07T02:39:29.778Z,9.00
2023-01-07T02:42:05.441Z,9.00
2023-01-07T02:44:45.651Z,9.00
2023-01-07T02:47:35.022Z,9.00
2023-01-07T02:50:10.480Z,9.00
2023-01-07T02:52:37.566Z,9.00
2023-01-07T02:55:33.430Z,9.00
2023-01-07T02:58:14.192Z,9.10
2023-01-07T03:01:29.263Z,9.10
2023-01-07T03:04:12.436Z,9.10
2023-01-07T03:07:13.756Z,9.00
2023-01-07T03:09:55.516Z,9.00
2023-01-07T03:12:51.552Z,9.10
2023-01-07T03:15:40.322Z,9.10
2023-01-07T03:18:26.676Z,9.10
2023-01-07T03:21:00.663Z,9.10
2023-01-07T03:23:30.437Z,9.10
2023-01-07T03:26:03.886Z,9.10
2023-01-07T03:28:37.177Z,9.00
2023-01-07T03:31:05.316Z,9.00
2023-01-07T03:33:55.908Z,9.10
2023-01-07T03:36:35.972Z,9.20
2023-01-07T03:39:04.715Z,9.10
2023-01-07T03:41:59.014Z,9.10
2023-01-07T03:44:26.067Z,9.10
2023-01-07T03:46:53.283Z,9.10
2023-01-07T03:49:20.334Z,9.10
2023-01-07T03:51:49.237Z,9.10
2023-01-07T03:54:15.973Z,9.10
2023-01-07T03:56:42.557Z,9.20
2023-01-07T03:59:09.278Z,9.20
2023-01-07T04:01:36.041Z,9.20
2023-01-07T04:04:03.533Z,9.30
2023-01-07T04:06:30.565Z,9.20
2023-01-07T04:08:57.332Z,9.20
2023-01-07T04:11:23.934Z,9.10
2023-01-07T04:13:50.650Z,9.10
2023-01-07T04:16:17.313Z,9.10
2023-01-07T04:18:43.933Z,9.10
2023-01-07T04:21:10.717Z,9.10
2023-01-07T04:23:37.329Z,9.10
2023-01-07T04:26:04.141Z,9.00
2023-01-07T04:28:30.713Z,9.00
2023-01-07T04:30:59.541Z,9.00
2023-01-07T04:33:26.417Z,9.00
2023-01-07T04:35:52.983Z,8.90
2023-01-07T04:38:21.435Z,8.90
2023-01-07T04:40:48.025Z,8.90
2023-01-07T04:43:14.609Z,8.80
2023-01-07T04:45:41.599Z,8.80
2023-01-07T04:48:08.230Z,8.80
2023-01-07T04:50:35.043Z,8.80
2023-01-07T04:53:01.600Z,8.80
2023-01-07T04:55:28.324Z,8.70
2023-01-07T04:57:54.945Z,8.80
2023-01-07T05:00:21.685Z,8.90
2023-01-07T05:02:48.423Z,9.00
2023-01-07T05:05:15.270Z,9.00
2023-01-07T05:07:41.854Z,9.00
2023-01-07T05:10:08.947Z,9.00
2023-01-07T05:12:36.390Z,9.10
2023-01-07T05:15:05.639Z,9.10
2023-01-07T05:17:32.650Z,9.00
2023-01-07T05:19:59.193Z,9.10
2023-01-07T05:22:25.769Z,9.10
2023-01-07T05:24:52.342Z,9.10
2023-01-07T05:27:19.107Z,9.10
2023-01-07T05:29:45.666Z,9.10
2023-01-07T05:32:12.238Z,9.00
2023-01-07T05:34:39.958Z,9.00
2023-01-07T05:37:06.638Z,8.90
2023-01-07T05:39:33.307Z,8.90
2023-01-07T05:42:00.195Z,8.90
2023-01-07T05:44:26.763Z,8.90
2023-01-07T05:46:53.440Z,8.90
2023-01-07T05:49:20.036Z,8.90
2023-01-07T05:51:46.627Z,8.80
2023-01-07T05:54:13.211Z,8.80
2023-01-07T05:56:39.830Z,8.80
2023-01-07T05:59:06.405Z,8.90
2023-01-07T06:01:36.945Z,8.80
2023-01-07T06:04:03.542Z,8.80
2023-01-07T06:06:30.107Z,8.80
2023-01-07T06:09:00.112Z,8.80
2023-01-07T06:11:26.719Z,8.80
2023-01-07T06:13:53.293Z,8.80
2023-01-07T06:16:20.004Z,8.90
2023-01-07T06:18:50.891Z,8.90
2023-01-07T06:21:18.185Z,8.80
2023-01-07T06:23:44.809Z,8.80
2023-01-07T06:26:11.430Z,8.80
2023-01-07T06:28:38.533Z,8.80
2023-01-07T06:31:05.288Z,8.80
2023-01-07T06:33:33.507Z,8.70
2023-01-07T06:36:02.246Z,8.80
2023-01-07T06:38:28.816Z,8.80
2023-01-07T06:40:55.423Z,8.80
2023-01-07T06:43:22.014Z,8.80
2023-01-07T06:45:57.896Z,8.90
2023-01-07T06:48:24.647Z,8.90
2023-01-07T06:50:51.394Z,8.90
2023-01-07T06:53:18.264Z,8.80
2023-01-07T06:55:51.799Z,8.70
2023-01-07T06:58:18.680Z,8.70
2023-01-07T07:00:45.272Z,8.60
2023-01-07T07:03:11.989Z,8.70
2023-01-07T07:05:38.770Z,8.70
2023-01-07T07:08:06.256Z,8.80
2023-01-07T07:10:33.320Z,8.80
2023-01-07T07:12:59.882Z,8.70
2023-01-07T07:15:26.858Z,8.70
2023-01-07T07:17:53.471Z,8.70
2023-01-07T07:20:20.090Z,8.70
2023-01-07T07:22:48.299Z,8.60
2023-01-07T07:25:15.686Z,8.60
2023-01-07T07:27:46.293Z,8.60
2023-01-07T07:30:16.383Z,8.60
2023-01-07T07:32:43.276Z,8.60
2023-01-07T07:35:11.345Z,8.60
2023-01-07T07:37:43.954Z,8.60
2023-01-07T07:40:11.351Z,8.70
2023-01-07T07:43:10.666Z,8.70
2023-01-07T07:45:25.420Z,8.70
2023-01-07T07:47:52.044Z,8.70
2023-01-07T07:50:18.667Z,8.70
2023-01-07T07:52:46.143Z,8.70
2023-01-07T07:55:19.906Z,8.70
2023-01-07T07:57:48.233Z,8.70
2023-01-07T08:00:15.353Z,8.60
2023-01-07T08:02:42.449Z,8.70
2023-01-07T08:05:11.235Z,8.60
2023-01-07T08:07:38.503Z,8.60
2023-01-07T08:10:06.654Z,8.70
2023-01-07T08:12:38.187Z,8.70
2023-01-07T08:15:06.597Z,8.70
2023-01-07T08:17:33.478Z,8.70
2023-01-07T08:20:00.326Z,8.70
2023-01-07T08:22:27.040Z,8.70
2023-01-07T08:24:53.652Z,8.70
2023-01-07T08:27:20.356Z,8.80
2023-01-07T08:29:47.013Z,8.80
2023-01-07T08:32:13.595Z,8.80
2023-01-07T08:34:42.615Z,8.90
2023-01-07T08:37:09.178Z,8.90
2023-01-07T08:39:35.792Z,9.00
2023-01-07T08:42:02.524Z,9.00
2023-01-07T08:44:29.117Z,9.10
2023-01-07T08:46:55.821Z,9.10
2023-01-07T08:49:23.220Z,9.10
2023-01-07T08:51:49.800Z,9.10
2023-01-07T08:54:16.488Z,9.10
2023-01-07T08:56:43.682Z,9.10
2023-01-07T08:59:10.504Z,9.10
2023-01-07T09:01:37.299Z,9.20
2023-01-07T09:04:04.299Z,9.20
2023-01-07T09:06:30.907Z,9.20
2023-01-07T09:08:57.579Z,9.30
2023-01-07T09:11:24.185Z,9.20
2023-01-07T09:13:50.755Z,9.30
2023-01-07T09:16:17.439Z,9.30
2023-01-07T09:18:44.147Z,9.30
2023-01-07T09:21:10.747Z,9.30
2023-01-07T09:23:37.458Z,9.30
2023-01-07T09:26:04.248Z,9.30
2023-01-07T09:28:30.821Z,9.30
2023-01-07T09:30:57.393Z,9.30
2023-01-07T09:33:24.440Z,9.30
2023-01-07T09:35:51.136Z,9.30
2023-01-07T09:38:17.795Z,9.20
2023-01-07T09:40:45.420Z,9.20
2023-01-07T09:44:00.504Z,9.30
2023-01-07T09:46:29.290Z,9.20
2023-01-07T09:49:02.365Z,9.20
2023-01-07T09:51:37.180Z,9.20
2023-01-07T09:54:06.693Z,9.30
2023-01-07T09:56:35.137Z,9.20
2023-01-07T09:59:03.973Z,9.30
2023-01-07T10:01:43.071Z,9.30
2023-01-07T10:04:39.498Z,9.30
2023-01-07T10:07:11.330Z,9.40
2023-01-07T10:10:09.189Z,9.40
2023-01-07T10:13:00.377Z,9.40
2023-01-07T10:15:52.979Z,9.40
2023-01-07T10:18:42.176Z,9.40
2023-01-07T10:21:13.343Z,9.40
2023-01-07T10:23:44.209Z,9.40
2023-01-07T10:26:36.466Z,9.40
2023-01-07T10:29:39.236Z,9.40
2023-01-07T10:32:20.845Z,9.50
2023-01-07T10:34:55.784Z,9.50
2023-01-07T10:37:38.695Z,9.50
2023-01-07T10:40:33.039Z,9.50
2023-01-07T10:43:24.699Z,9.50
2023-01-07T10:46:14.744Z,9.40
2023-01-07T10:49:02.515Z,9.50
2023-01-07T10:52:11.205Z,9.50
2023-01-07T10:54:51.216Z,9.60
2023-01-07T10:57:28.095Z,9.60
2023-01-07T11:00:02.378Z,9.60
2023-01-07T11:02:29.879Z,9.70
2023-01-07T11:04:59.429Z,9.70
2023-01-07T11:08:13.824Z,9.80
2023-01-07T11:10:40.503Z,9.90
2023-01-07T11:13:15.664Z,9.90
2023-01-07T11:15:46.012Z,9.90
2023-01-07T11:18:58.454Z,10.00
2023-01-07T11:22:00.403Z,10.10
2023-01-07T11:24:26.960Z,10.20
2023-01-07T11:27:16.995Z,10.10
2023-01-07T11:30:21.739Z,10.10
2023-01-07T11:33:05.144Z,10.20
2023-01-07T11:35:32.078Z,10.20
2023-01-07T11:37:59.990Z,10.10
2023-01-07T11:40:32.369Z,10.20
2023-01-07T11:43:21.674Z,10.30
2023-01-07T11:46:20.077Z,10.40
2023-01-07T11:49:00.600Z,10.50
2023-01-07T11:51:38.896Z,10.60
2023-01-07T11:54:05.656Z,10.60
2023-01-07T11:56:34.047Z,10.60
2023-01-07T11:59:15.583Z,10.60
2023-01-07T12:01:49.585Z,10.70
2023-01-07T12:04:37.015Z,10.50
2023-01-07T12:07:13.350Z,10.60
2023-01-07T12:09:42.522Z,10.50
2023-01-07T12:12:34.068Z,10.50
2023-01-07T12:15:26.847Z,10.50
2023-01-07T12:18:08.062Z,10.50
2023-01-07T12:21:27.802Z,10.50
2023-01-07T12:24:20.574Z,10.50
2023-01-07T12:27:03.022Z,10.50
2023-01-07T12:30:15.032Z,10.50
2023-01-07T12:32:52.028Z,10.50
2023-01-07T12:35:31.436Z,10.50
2023-01-07T12:38:20.706Z,10.50
2023-01-07T12:41:10.619Z,10.40
2023-01-07T12:43:56.476Z,10.40
2023-01-07T12:46:27.316Z,10.30
2023-01-07T12:49:23.028Z,10.30
2023-01-07T12:51:58.223Z,10.30
2023-01-07T12:54:59.579Z,10.30
2023-01-07T12:57:35.749Z,10.40
2023-01-07T13:00:21.105Z,10.40
2023-01-07T13:03:19.116Z,10.30
2023-01-07T13:05:56.676Z,10.40
2023-01-07T13:08:51.800Z,10.40
2023-01-07T13:11:58.657Z,10.40
2023-01-07T13:14:32.134Z,10.50
2023-01-07T13:17:14.699Z,10.40
2023-01-07T13:19:43.045Z,10.40
2023-01-07T13:22:38.234Z,10.30
2023-01-07T13:25:43.272Z,10.30
2023-01-07T13:28:41.843Z,10.20
2023-01-07T13:31:55.509Z,10.20
2023-01-07T13:34:40.559Z,10.20
2023-01-07T13:37:55.639Z,10.10
2023-01-07T13:41:04.091Z,10.10
2023-01-07T13:43:49.082Z,10.00
2023-01-07T13:46:21.755Z,10.00
2023-01-07T13:48:53.866Z,9.90
2023-01-07T13:51:33.207Z,9.90
2023-01-07T13:54:00.109Z,9.90
2023-01-07T13:56:27.119Z,9.90
2023-01-07T13:58:56.058Z,9.80
2023-01-07T14:01:34.700Z,9.80
2023-01-07T14:04:35.983Z,9.80
2023-01-07T14:07:02.791Z,9.80
2023-01-07T14:09:34.921Z,9.80
2023-01-07T14:12:21.469Z,9.90
2023-01-07T14:15:29.181Z,9.90
2023-01-07T14:18:32.376Z,9.90
2023-01-07T14:21:20.986Z,9.80
2023-01-07T14:24:03.998Z,9.80
2023-01-07T14:26:47.177Z,9.80
2023-01-07T14:29:49.620Z,9.80
2023-01-07T14:32:25.660Z,9.80
2023-01-07T14:35:05.783Z,9.80
2023-01-07T14:37:40.262Z,9.80
2023-01-07T14:40:25.684Z,9.80
2023-01-07T14:42:57.534Z,9.80
2023-01-07T14:45:36.457Z,9.80
2023-01-07T14:48:31.408Z,9.80
2023-01-07T14:51:39.645Z,9.80
2023-01-07T14:54:42.064Z,9.70
2023-01-07T14:57:29.111Z,9.70
2023-01-07T15:00:04.602Z,9.70
2023-01-07T15:03:01.358Z,9.70
2023-01-07T15:05:58.971Z,9.70
2023-01-07T15:08:58.985Z,9.70
2023-01-07T15:11:45.248Z,9.70
2023-01-07T15:14:50.108Z,9.70
2023-01-07T15:17:17.185Z,9.60
2023-01-07T15:19:44.619Z,9.60
2023-01-07T15:22:54.556Z,9.60
2023-01-07T15:25:51.355Z,9.60
2023-01-07T15:28:48.286Z,9.60
2023-01-07T15:32:04.159Z,9.50
2023-01-07T15:34:32.984Z,9.50
2023-01-07T15:37:06.565Z,9.50
2023-01-07T15:39:40.894Z,9.30
2023-01-07T15:42:16.151Z,9.30
2023-01-07T15:44:43.417Z,9.20
2023-01-07T15:47:40.850Z,9.20
2023-01-07T15:50:31.189Z,9.10
2023-01-07T15:53:25.568Z,9.00
2023-01-07T15:56:08.062Z,9.00
2023-01-07T15:58:44.607Z,8.90
2023-01-07T16:01:21.732Z,8.80
2023-01-07T16:03:51.560Z,8.80
2023-01-07T16:06:39.055Z,8.70
2023-01-07T16:09:21.400Z,8.70
2023-01-07T16:11:48.032Z,8.80
2023-01-07T16:14:21.070Z,8.80
2023-01-07T16:16:48.000Z,8.80
2023-01-07T16:19:20.525Z,8.90
2023-01-07T16:21:54.713Z,8.90
2023-01-07T16:24:21.556Z,8.90
2023-01-07T16:27:05.327Z,8.90
2023-01-07T16:29:44.050Z,8.90
2023-01-07T16:32:11.832Z,9.00
2023-01-07T16:34:41.153Z,9.00
2023-01-07T16:37:15.673Z,9.00
2023-01-07T16:39:47.183Z,8.90
2023-01-07T16:42:20.031Z,8.90
2023-01-07T16:44:46.709Z,8.90
2023-01-07T16:47:26.358Z,8.80
2023-01-07T16:50:19.988Z,8.70
2023-01-07T16:52:52.844Z,8.70
2023-01-07T16:55:44.133Z,8.60
2023-01-07T16:58:34.171Z,8.60
2023-01-07T17:01:03.255Z,8.50
2023-01-07T17:03:47.678Z,8.40
2023-01-07T17:06:15.264Z,8.30
2023-01-07T17:08:49.333Z,8.20
2023-01-07T17:11:33.647Z,8.20
2023-01-07T17:14:00.264Z,8.10
2023-01-07T17:16:34.145Z,8.00
2023-01-07T17:19:25.412Z,7.90
2023-01-07T17:21:53.360Z,7.60
2023-01-07T17:24:42.768Z,7.50
2023-01-07T17:27:25.380Z,7.30
2023-01-07T17:29:52.295Z,7.30
2023-01-07T17:32:19.428Z,7.20
2023-01-07T17:34:46.163Z,7.10
2023-01-07T17:37:15.422Z,7.10
2023-01-07T17:39:44.447Z,7.00
2023-01-07T17:42:51.949Z,6.90
2023-01-07T17:45:20.777Z,6.80
2023-01-07T17:47:49.464Z,6.70
2023-01-07T17:50:18.245Z,6.70
2023-01-07T17:52:49.024Z,6.60
2023-01-07T17:55:26.817Z,6.50
2023-01-07T17:57:53.764Z,6.50
2023-01-07T18:00:24.676Z,6.50
2023-01-07T18:02:51.602Z,6.40
2023-01-07T18:05:25.263Z,6.30
2023-01-07T18:07:53.004Z,6.30
2023-01-07T18:10:27.139Z,6.10
2023-01-07T18:12:53.685Z,6.00
2023-01-07T18:15:25.879Z,6.00
2023-01-07T18:17:53.139Z,5.90
2023-01-07T18:20:22.056Z,5.90
2023-01-07T18:22:49.524Z,5.90
2023-01-07T18:25:20.565Z,5.90
2023-01-07T18:27:49.014Z,5.80
2023-01-07T18:30:18.875Z,5.80
2023-01-07T18:32:45.748Z,5.70
2023-01-07T18:35:12.810Z,5.60
2023-01-07T18:37:39.914Z,5.60
2023-01-07T18:40:08.450Z,5.50
2023-01-07T18:42:35.740Z,5.40
2023-01-07T18:45:03.832Z,5.50
2023-01-07T18:47:30.454Z,5.40
2023-01-07T18:49:57.151Z,5.40
2023-01-07T18:52:23.830Z,5.30
2023-01-07T18:54:50.445Z,5.20
2023-01-07T18:57:17.123Z,5.20
2023-01-07T18:59:44.071Z,5.10
2023-01-07T19:02:19.354Z,5.00
2023-01-07T19:04:50.728Z,5.00
2023-01-07T19:07:18.393Z,5.00
2023-01-07T19:09:45.551Z,5.00
2023-01-07T19:12:12.784Z,5.00
2023-01-07T19:14:40.480Z,4.90
2023-01-07T19:17:08.209Z,4.90
2023-01-07T19:19:47.325Z,4.90
2023-01-07T19:22:15.848Z,4.90
2023-01-07T19:24:42.535Z,4.90
2023-01-07T19:27:09.149Z,5.00
2023-01-07T19:29:35.746Z,4.90
2023-01-07T19:32:02.375Z,4.90
2023-01-07T19:34:29.079Z,4.90
2023-01-07T19:36:55.728Z,4.90
2023-01-07T19:39:23.958Z,4.90
2023-01-07T19:41:51.034Z,5.00
2023-01-07T19:44:17.902Z,4.90
2023-01-07T19:46:44.580Z,4.90
2023-01-07T19:49:12.205Z,4.90
2023-01-07T19:51:42.154Z,4.90
2023-01-07T19:54:16.723Z,4.90
2023-01-07T19:56:43.849Z,4.90
2023-01-07T19:59:10.956Z,4.90
2023-01-07T20:01:38.767Z,4.90
2023-01-07T20:04:08.010Z,4.90
2023-01-07T20:06:41.536Z,4.90
2023-01-07T20:09:10.480Z,4.90
2023-01-07T20:11:42.416Z,4.90
2023-01-07T20:14:09.248Z,4.90
2023-01-07T20:16:38.692Z,4.80
2023-01-07T20:19:05.924Z,4.90
2023-01-07T20:21:33.475Z,4.90
2023-01-07T20:24:00.337Z,5.00
2023-01-07T20:26:30.999Z,5.00
2023-01-07T20:28:59.330Z,5.00
2023-01-07T20:31:28.382Z,5.00
2023-01-07T20:33:55.714Z,5.10
2023-01-07T20:36:25.674Z,5.10
2023-01-07T20:38:52.385Z,5.20
2023-01-07T20:41:30.099Z,5.20
2023-01-07T20:43:59.963Z,5.10
2023-01-07T20:46:29.023Z,5.20
2023-01-07T20:48:57.150Z,5.20
2023-01-07T20:51:24.161Z,5.20
2023-01-07T20:53:50.918Z,5.30
2023-01-07T20:56:20.554Z,5.40
2023-01-07T20:58:48.452Z,5.50
2023-01-07T21:01:19.473Z,5.70
2023-01-07T21:03:46.310Z,5.80
2023-01-07T21:06:15.395Z,6.10
2023-01-07T21:08:45.175Z,6.40
2023-01-07T21:11:14.551Z,6.60
2023-01-07T21:13:41.843Z,6.80
2023-01-07T21:16:09.014Z,6.80
2023-01-07T21:18:36.341Z,6.90
2023-01-07T21:21:15.860Z,7.00
2023-01-07T21:23:43.495Z,7.40
2023-01-07T21:26:12.699Z,7.60
2023-01-07T21:28:39.947Z,7.70
2023-01-07T21:31:11.306Z,7.90
2023-01-07T21:33:41.633Z,8.10
2023-01-07T21:36:11.294Z,8.20
2023-01-07T21:38:38.140Z,8.30
2023-01-07T21:41:13.591Z,8.40
2023-01-07T21:43:40.562Z,8.30
2023-01-07T21:46:08.118Z,8.30
2023-01-07T21:48:38.816Z,8.40
2023-01-07T21:51:12.495Z,8.50
2023-01-07T21:53:39.207Z,8.50
2023-01-07T21:56:08.540Z,8.60
2023-01-07T21:58:36.238Z,8.50
2023-01-07T22:01:04.603Z,8.60
2023-01-07T22:03:32.015Z,8.50
2023-01-07T22:06:23.765Z,8.50
2023-01-07T22:08:55.563Z,8.60
2023-01-07T22:11:22.575Z,8.60
2023-01-07T22:13:51.808Z,8.60
2023-01-07T22:16:20.641Z,8.60
2023-01-07T22:18:47.614Z,8.50
2023-01-07T22:21:18.266Z,8.50
2023-01-07T22:23:46.864Z,8.50
2023-01-07T22:26:16.367Z,8.50
2023-01-07T22:28:49.878Z,8.50
2023-01-07T22:31:32.435Z,8.50
2023-01-07T22:33:59.799Z,8.60
2023-01-07T22:36:31.543Z,8.50
2023-01-07T22:39:03.221Z,8.50
2023-01-07T22:41:33.643Z,8.40
2023-01-07T22:44:06.219Z,8.40
2023-01-07T22:46:34.083Z,8.30
2023-01-07T22:49:00.767Z,8.20
2023-01-07T22:51:31.833Z,8.10
2023-01-07T22:54:00.109Z,8.00
2023-01-07T22:56:27.364Z,8.00
2023-01-07T22:59:00.048Z,8.00
2023-01-07T23:01:26.720Z,7.90
2023-01-07T23:03:53.484Z,7.90
2023-01-07T23:06:20.116Z,8.00
2023-01-07T23:08:46.828Z,7.90
2023-01-07T23:11:36.233Z,7.90
2023-01-07T23:14:03.107Z,7.80
2023-01-07T23:16:29.882Z,7.80
2023-01-07T23:18:56.637Z,7.80
2023-01-07T23:21:23.448Z,7.80
2023-01-07T23:23:50.116Z,7.70
2023-01-07T23:26:16.690Z,7.70
2023-01-07T23:28:43.356Z,7.70
2023-01-07T23:31:10.176Z,7.70
2023-01-07T23:33:36.832Z,7.80
2023-01-07T23:36:08.988Z,7.90
2023-01-07T23:38:36.749Z,8.00
2023-01-07T23:41:06.797Z,8.20
2023-01-07T23:43:34.258Z,8.30
2023-01-07T23:46:05.753Z,8.40
2023-01-07T23:48:34.568Z,8.50
2023-01-07T23:51:19.447Z,8.60
2023-01-07T23:53:46.372Z,8.70
2023-01-07T23:56:20.361Z,8.70
2023-01-07T23:58:48.436Z,8.70
